Time;durP1;ratioP1;P1;durP2;ratioP2;P2;SDS_P1;SDS_P2;PMS_P1;PMS_P2;Temp;Humidity;BMP_temperature;BMP_pressure;BME280_temperature;BME280_humidity;BME280_pressure;Samples;Min_cycle;Max_cycle;Signal;HPM_P1;HPM_P2
2023/03/31 00:00:59;;;;;;;;;;;9.70;99.90;;;;;;5037694;28;19908;-86
2023/03/31 00:03:37;;;;;;;;;;;9.70;99.90;;;;;;5030507;28;19913;-86
2023/03/31 00:06:04;;;;;;;;;;;9.70;99.90;;;;;;5039250;28;19968;-87
2023/03/31 00:08:46;;;;;;;;;;;9.80;99.90;;;;;;5042550;28;19921;-86
2023/03/31 00:11:11;;;;;;;;;;;9.90;99.90;;;;;;5055718;28;19923;-86
2023/03/31 00:13:40;;;;;;;;;;;9.80;99.90;;;;;;5048517;28;19905;-86
2023/03/31 00:16:08;;;;;;;;;;;9.90;99.90;;;;;;5041506;28;19919;-86
2023/03/31 00:18:34;;;;;;;;;;;9.80;99.90;;;;;;5037798;28;19901;-86
2023/03/31 00:21:13;;;;;;;;;;;9.70;99.90;;;;;;5052591;28;19915;-86
2023/03/31 00:23:39;;;;;;;;;;;9.70;99.90;;;;;;5061019;28;19947;-86
2023/03/31 00:26:11;;;;;;;;;;;9.70;99.90;;;;;;5067295;28;19909;-86
2023/03/31 00:28:50;;;;;;;;;;;9.60;99.90;;;;;;5061790;28;19905;-87
2023/03/31 00:31:30;;;;;;;;;;;9.70;99.90;;;;;;5050153;28;19932;-86
2023/03/31 00:34:01;;;;;;;;;;;9.70;99.90;;;;;;5059068;28;19916;-86
2023/03/31 00:36:29;;;;;;;;;;;9.70;99.90;;;;;;5064677;28;19928;-87
2023/03/31 00:39:01;;;;;;;;;;;9.70;99.90;;;;;;5046154;28;19920;-85
2023/03/31 00:41:28;;;;;;;;;;;9.70;99.90;;;;;;5064173;28;19908;-86
2023/03/31 00:44:13;;;;;;;;;;;9.60;99.90;;;;;;5037133;28;19909;-86
2023/03/31 00:47:05;;;;;;;;;;;9.50;99.90;;;;;;5035634;28;19931;-87
2023/03/31 00:49:39;;;;;;;;;;;9.50;99.90;;;;;;5031752;28;19905;-85
2023/03/31 00:52:17;;;;;;;;;;;9.50;99.90;;;;;;5046637;28;19911;-86
2023/03/31 00:54:45;;;;;;;;;;;9.50;99.90;;;;;;5050706;28;19905;-87
2023/03/31 00:57:13;;;;;;;;;;;9.50;99.90;;;;;;5049952;28;19911;-86
2023/03/31 01:02:56;;;;;;;;;;;9.50;99.90;;;;;;5057306;28;19936;-86
2023/03/31 01:05:26;;;;;;;;;;;9.70;99.90;;;;;;5047787;28;19935;-86
2023/03/31 01:07:55;;;;;;;;;;;9.60;99.90;;;;;;5053581;28;19901;-85
2023/03/31 01:10:21;;;;;;;;;;;9.80;99.90;;;;;;5053448;28;19905;-86
2023/03/31 01:13:06;;;;;;;;;;;9.80;99.90;;;;;;5063414;28;19996;-85
2023/03/31 01:15:31;;;;;;;;;;;9.80;99.90;;;;;;5051602;28;19901;-86
2023/03/31 01:18:02;;;;;;;;;;;9.70;99.90;;;;;;5066907;28;19905;-86
2023/03/31 01:20:46;;;;;;;;;;;9.80;99.90;;;;;;5061051;28;20680;-86
2023/03/31 01:23:35;;;;;;;;;;;9.80;99.90;;;;;;5039781;28;19900;-86
2023/03/31 01:26:09;;;;;;;;;;;9.80;99.90;;;;;;5054702;28;19915;-87
2023/03/31 01:28:47;;;;;;;;;;;9.80;99.90;;;;;;5064799;28;19901;-86
2023/03/31 01:31:31;;;;;;;;;;;9.80;99.90;;;;;;5055639;28;19972;-87
2023/03/31 01:36:50;;;;;;;;;;;9.80;99.90;;;;;;5060430;28;19901;-86
2023/03/31 01:39:35;;;;;;;;;;;9.80;99.90;;;;;;5048343;28;19900;-87
2023/03/31 01:42:09;;;;;;;;;;;9.80;99.90;;;;;;5031874;28;19904;-86
2023/03/31 01:47:39;;;;;;;;;;;9.90;99.90;;;;;;5041000;28;19960;-85
2023/03/31 01:50:17;;;;;;;;;;;9.90;99.90;;;;;;5025481;28;19984;-84
2023/03/31 01:55:59;;;;;;;;;;;9.90;99.90;;;;;;5056781;28;19897;-86
2023/03/31 01:58:57;;;;;;;;;;;9.90;99.90;;;;;;5046147;28;20062;-87
2023/03/31 02:01:46;;;;;;;;;;;9.90;99.90;;;;;;5009995;28;19905;-87
2023/03/31 02:04:15;;;;;;;;;;;9.80;99.90;;;;;;5119582;23;20379;-86
2023/03/31 02:06:45;;;;;;;;;;;9.70;99.90;;;;;;5038400;28;19906;-86
2023/03/31 02:09:16;;;;;;;;;;;9.60;99.90;;;;;;5019170;28;19909;-86
2023/03/31 02:11:50;;;;;;;;;;;9.60;99.90;;;;;;5025059;28;19901;-86
2023/03/31 02:14:28;;;;;;;;;;;9.80;99.90;;;;;;5042313;28;19905;-87
2023/03/31 02:17:04;;;;;;;;;;;9.50;99.90;;;;;;5019616;28;19968;-86
2023/03/31 02:19:38;;;;;;;;;;;9.40;99.90;;;;;;5036724;28;19981;-86
2023/03/31 02:22:08;;;;;;;;;;;9.60;99.90;;;;;;5031667;28;19905;-87
2023/03/31 02:24:43;;;;;;;;;;;9.50;99.90;;;;;;5039339;28;19909;-86
2023/03/31 02:27:21;;;;;;;;;;;9.40;99.90;;;;;;5009909;28;19917;-86
2023/03/31 02:30:06;;;;;;;;;;;8.90;99.90;;;;;;5032184;28;20282;-86
2023/03/31 02:32:41;;;;;;;;;;;9.40;99.90;;;;;;5010455;28;19912;-86
2023/03/31 02:35:19;;;;;;;;;;;9.30;99.90;;;;;;5042283;28;19905;-86
2023/03/31 02:37:45;;;;;;;;;;;9.20;99.90;;;;;;5027379;28;19909;-86
2023/03/31 02:40:21;;;;;;;;;;;9.20;99.90;;;;;;5022076;28;19909;-87
2023/03/31 02:42:48;;;;;;;;;;;9.20;99.90;;;;;;5026001;28;19906;-86
2023/03/31 02:45:34;;;;;;;;;;;9.20;99.90;;;;;;5018962;28;19937;-86
2023/03/31 02:48:15;;;;;;;;;;;9.10;99.90;;;;;;5031645;28;20227;-86
2023/03/31 02:51:01;;;;;;;;;;;9.00;99.90;;;;;;5011774;28;19920;-86
2023/03/31 02:53:46;;;;;;;;;;;9.00;99.90;;;;;;5021527;28;19913;-86
2023/03/31 02:59:15;;;;;;;;;;;8.90;99.90;;;;;;5037905;28;19909;-86
2023/03/31 03:02:04;;;;;;;;;;;8.80;99.90;;;;;;5015666;28;19905;-86
2023/03/31 03:04:52;;;;;;;;;;;8.80;99.90;;;;;;5012542;28;19921;-86
2023/03/31 03:07:28;;;;;;;;;;;8.70;99.90;;;;;;5016482;28;19909;-86
2023/03/31 03:10:13;;;;;;;;;;;8.80;99.90;;;;;;5029831;28;20202;-86
2023/03/31 03:12:54;;;;;;;;;;;8.80;99.90;;;;;;5022479;28;19905;-87
2023/03/31 03:15:31;;;;;;;;;;;8.70;99.90;;;;;;5034895;28;19946;-87
2023/03/31 03:18:08;;;;;;;;;;;8.70;99.90;;;;;;5036300;28;19909;-86
2023/03/31 03:20:38;;;;;;;;;;;8.70;99.90;;;;;;5031231;28;19905;-86
2023/03/31 03:23:05;;;;;;;;;;;8.70;99.90;;;;;;5032306;28;20358;-85
2023/03/31 03:25:33;;;;;;;;;;;8.70;99.90;;;;;;5015343;28;20371;-86
2023/03/31 03:28:00;;;;;;;;;;;8.60;99.90;;;;;;5025854;28;19913;-86
2023/03/31 03:30:39;;;;;;;;;;;8.60;99.90;;;;;;5020709;28;19977;-86
2023/03/31 03:33:05;;;;;;;;;;;8.50;99.90;;;;;;5023111;28;19933;-86
2023/03/31 03:35:40;;;;;;;;;;;8.50;99.90;;;;;;5038651;28;19905;-86
2023/03/31 03:38:08;;;;;;;;;;;8.40;99.90;;;;;;5013807;28;19910;-86
2023/03/31 03:40:40;;;;;;;;;;;8.30;99.90;;;;;;5034530;28;19906;-86
2023/03/31 03:43:15;;;;;;;;;;;8.30;99.90;;;;;;5043020;28;19908;-86
2023/03/31 03:45:58;;;;;;;;;;;8.20;99.90;;;;;;5031247;28;19969;-86
2023/03/31 03:48:26;;;;;;;;;;;8.10;99.90;;;;;;5040941;28;19905;-86
2023/03/31 03:50:58;;;;;;;;;;;8.10;99.90;;;;;;5042469;28;19927;-86
2023/03/31 03:53:31;;;;;;;;;;;8.00;99.90;;;;;;5041211;28;19909;-86
2023/03/31 03:56:05;;;;;;;;;;;8.00;99.90;;;;;;5028796;28;19952;-87
2023/03/31 03:58:38;;;;;;;;;;;7.90;99.90;;;;;;5026761;28;19906;-86
2023/03/31 04:01:07;;;;;;;;;;;7.90;99.90;;;;;;5031064;28;19909;-86
2023/03/31 04:03:34;;;;;;;;;;;7.90;99.90;;;;;;5024628;28;19905;-86
2023/03/31 04:06:12;;;;;;;;;;;7.90;99.90;;;;;;5040577;28;19948;-86
2023/03/31 04:08:42;;;;;;;;;;;7.80;99.90;;;;;;5018836;28;19905;-87
2023/03/31 04:11:20;;;;;;;;;;;7.80;99.90;;;;;;5015417;28;20010;-85
2023/03/31 04:13:48;;;;;;;;;;;7.90;99.90;;;;;;5038068;28;19909;-86
2023/03/31 04:16:24;;;;;;;;;;;7.90;99.90;;;;;;5045666;28;19890;-87
2023/03/31 04:18:58;;;;;;;;;;;7.90;99.90;;;;;;5029118;28;19981;-86
2023/03/31 04:21:29;;;;;;;;;;;7.90;99.90;;;;;;5039788;28;19916;-87
2023/03/31 04:24:00;;;;;;;;;;;7.90;99.90;;;;;;5030082;28;19936;-84
2023/03/31 04:26:41;;;;;;;;;;;7.90;99.90;;;;;;5020534;28;19975;-85
2023/03/31 04:29:19;;;;;;;;;;;7.90;99.90;;;;;;5005755;28;19912;-85
2023/03/31 04:31:46;;;;;;;;;;;7.90;99.90;;;;;;5008431;28;20650;-84
2023/03/31 04:34:12;;;;;;;;;;;8.00;99.90;;;;;;5002100;28;20562;-84
2023/03/31 04:36:41;;;;;;;;;;;8.00;99.90;;;;;;5005352;28;19905;-84
2023/03/31 04:39:11;;;;;;;;;;;8.00;99.90;;;;;;4991532;28;19913;-83
2023/03/31 04:41:36;;;;;;;;;;;8.10;99.90;;;;;;4996140;28;19917;-84
2023/03/31 04:44:03;;;;;;;;;;;8.10;99.90;;;;;;5007172;28;19913;-86
2023/03/31 04:46:34;;;;;;;;;;;8.20;99.90;;;;;;5028679;28;19905;-85
2023/03/31 04:49:01;;;;;;;;;;;8.30;99.90;;;;;;5024448;28;19988;-85
2023/03/31 04:51:27;;;;;;;;;;;8.20;99.90;;;;;;5030457;28;20453;-85
2023/03/31 04:53:53;;;;;;;;;;;8.10;99.90;;;;;;5026343;28;19905;-85
2023/03/31 04:56:21;;;;;;;;;;;8.10;99.90;;;;;;5018445;28;19921;-86
2023/03/31 04:58:54;;;;;;;;;;;8.10;99.90;;;;;;5015883;28;19913;-85
2023/03/31 05:01:21;;;;;;;;;;;8.10;99.90;;;;;;5027784;28;19967;-84
2023/03/31 05:03:46;;;;;;;;;;;8.10;99.90;;;;;;5031847;28;20436;-84
2023/03/31 05:06:43;;;;;;;;;;;8.20;99.90;;;;;;5021970;28;19910;-85
2023/03/31 05:09:17;;;;;;;;;;;8.30;99.90;;;;;;4994580;28;19917;-79
2023/03/31 05:11:51;;;;;;;;;;;8.50;99.90;;;;;;4980933;28;19910;-81
2023/03/31 05:14:18;;;;;;;;;;;8.90;99.90;;;;;;5004204;28;19905;-81
2023/03/31 05:16:47;;;;;;;;;;;9.60;99.90;;;;;;5005216;28;19909;-81
2023/03/31 05:19:36;;;;;;;;;;;11.10;99.90;;;;;;4999925;28;19909;-81
2023/03/31 05:22:09;;;;;;;;;;;12.50;99.90;;;;;;4989668;28;20002;-81
2023/03/31 05:24:35;;;;;;;;;;;13.80;99.90;;;;;;4971709;28;19909;-82
2023/03/31 05:27:01;;;;;;;;;;;14.70;99.90;;;;;;4992752;28;19913;-82
2023/03/31 05:29:27;;;;;;;;;;;15.50;99.90;;;;;;4999793;28;19920;-82
2023/03/31 05:31:57;;;;;;;;;;;16.10;99.90;;;;;;4991877;28;19910;-80
2023/03/31 05:34:25;;;;;;;;;;;15.90;99.90;;;;;;4999026;28;19900;-79
2023/03/31 05:36:52;;;;;;;;;;;15.60;99.90;;;;;;4987742;28;19906;-80
2023/03/31 05:39:18;;;;;;;;;;;16.10;99.90;;;;;;4995631;28;19912;-81
2023/03/31 05:41:44;;;;;;;;;;;16.00;99.90;;;;;;4989951;28;19997;-81
2023/03/31 05:44:11;;;;;;;;;;;16.00;99.90;;;;;;5005751;28;19967;-81
2023/03/31 05:46:37;;;;;;;;;;;16.10;99.90;;;;;;5007631;28;19914;-79
2023/03/31 05:49:03;;;;;;;;;;;16.80;99.20;;;;;;4993031;28;19932;-80
2023/03/31 05:51:29;;;;;;;;;;;17.60;96.70;;;;;;4993935;28;19906;-80
2023/03/31 05:53:55;;;;;;;;;;;19.30;94.30;;;;;;4999507;28;19960;-78
2023/03/31 05:56:28;;;;;;;;;;;21.00;86.80;;;;;;5008243;28;19905;-79
2023/03/31 05:58:54;;;;;;;;;;;21.80;78.00;;;;;;4990857;28;19909;-78
2023/03/31 06:01:21;;;;;;;;;;;20.80;76.90;;;;;;4995652;28;19915;-80
2023/03/31 06:03:47;;;;;;;;;;;19.50;79.40;;;;;;4985051;28;20000;-81
2023/03/31 06:06:13;;;;;;;;;;;18.90;82.50;;;;;;4984382;28;19919;-81
2023/03/31 06:08:39;;;;;;;;;;;18.00;85.50;;;;;;4981347;28;19921;-80
2023/03/31 06:11:06;;;;;;;;;;;18.00;88.20;;;;;;4998962;28;19906;-81
2023/03/31 06:13:35;;;;;;;;;;;19.60;86.20;;;;;;4984634;28;19905;-81
2023/03/31 06:16:02;;;;;;;;;;;20.60;78.80;;;;;;4997207;28;19914;-77
2023/03/31 06:18:30;;;;;;;;;;;23.00;73.60;;;;;;4989818;28;19916;-78
2023/03/31 06:21:04;;;;;;;;;;;24.50;67.00;;;;;;4977024;28;19959;-78
2023/03/31 06:23:30;;;;;;;;;;;24.30;62.90;;;;;;4983536;28;19913;-78
2023/03/31 06:25:59;;;;;;;;;;;25.30;62.00;;;;;;5000853;28;19923;-77
2023/03/31 06:28:25;;;;;;;;;;;25.10;58.70;;;;;;4983634;28;19909;-77
2023/03/31 06:30:58;;;;;;;;;;;24.70;59.60;;;;;;4970844;28;20369;-77
2023/03/31 06:33:25;;;;;;;;;;;24.20;58.60;;;;;;5000123;28;19909;-77
2023/03/31 06:35:58;;;;;;;;;;;23.70;59.70;;;;;;5004078;28;19912;-78
2023/03/31 06:38:25;;;;;;;;;;;23.60;60.40;;;;;;4996122;28;19921;-78
2023/03/31 06:40:51;;;;;;;;;;;23.90;60.10;;;;;;4995689;28;19909;-77
2023/03/31 06:43:17;;;;;;;;;;;24.30;58.20;;;;;;4994389;28;19906;-79
2023/03/31 06:45:42;;;;;;;;;;;24.70;58.10;;;;;;5002077;28;19916;-79
2023/03/31 06:48:09;;;;;;;;;;;24.20;58.30;;;;;;4992080;28;19913;-77
2023/03/31 06:50:38;;;;;;;;;;;23.30;59.50;;;;;;4975458;28;19905;-78
2023/03/31 06:53:07;;;;;;;;;;;22.00;61.00;;;;;;4993588;28;19941;-81
2023/03/31 06:55:36;;;;;;;;;;;21.30;62.60;;;;;;5002315;28;19909;-79
2023/03/31 06:58:05;;;;;;;;;;;21.10;64.00;;;;;;4991122;28;19905;-82
2023/03/31 07:00:31;;;;;;;;;;;20.30;65.90;;;;;;5003469;28;20517;-80
2023/03/31 07:03:05;;;;;;;;;;;19.50;67.10;;;;;;4998703;28;19918;-79
2023/03/31 07:05:31;;;;;;;;;;;19.20;68.70;;;;;;4994449;28;19921;-80
2023/03/31 07:07:58;;;;;;;;;;;19.70;68.60;;;;;;4984799;28;20420;-78
2023/03/31 07:10:25;;;;;;;;;;;21.80;68.00;;;;;;5000750;28;19920;-77
2023/03/31 07:13:01;;;;;;;;;;;25.30;60.90;;;;;;5003650;28;19916;-77
2023/03/31 07:15:28;;;;;;;;;;;27.70;55.80;;;;;;4996852;28;19920;-78
2023/03/31 07:18:00;;;;;;;;;;;27.00;54.20;;;;;;4993879;28;19909;-79
2023/03/31 07:20:36;;;;;;;;;;;25.60;54.50;;;;;;4974720;28;21204;-78
2023/03/31 07:23:04;;;;;;;;;;;24.40;55.40;;;;;;4981253;28;19945;-78
2023/03/31 07:25:32;;;;;;;;;;;23.30;58.40;;;;;;4986729;28;19917;-79
2023/03/31 07:28:05;;;;;;;;;;;22.20;59.10;;;;;;4976452;28;19917;-78
2023/03/31 07:30:39;;;;;;;;;;;21.70;60.60;;;;;;4988572;28;20271;-78
2023/03/31 07:33:06;;;;;;;;;;;21.00;62.10;;;;;;5001037;28;19984;-79
2023/03/31 07:35:48;;;;;;;;;;;20.70;63.40;;;;;;4977763;28;19905;-77
2023/03/31 07:38:13;;;;;;;;;;;20.60;65.20;;;;;;4989292;28;19909;-78
2023/03/31 07:40:42;;;;;;;;;;;20.20;65.80;;;;;;4994695;28;19928;-77
2023/03/31 07:43:12;;;;;;;;;;;19.70;68.40;;;;;;4995238;28;19905;-79
2023/03/31 07:45:39;;;;;;;;;;;19.20;70.00;;;;;;4994984;28;20020;-78
2023/03/31 07:48:07;;;;;;;;;;;18.90;72.50;;;;;;4997299;28;19910;-80
2023/03/31 07:50:33;;;;;;;;;;;18.70;73.40;;;;;;4998107;28;19906;-80
2023/03/31 07:53:00;;;;;;;;;;;18.90;73.90;;;;;;4988971;28;19917;-79
2023/03/31 07:55:28;;;;;;;;;;;19.50;71.70;;;;;;4992045;28;19913;-80
2023/03/31 07:57:53;;;;;;;;;;;20.40;69.70;;;;;;4989660;28;20493;-80
2023/03/31 08:00:20;;;;;;;;;;;21.10;68.70;;;;;;4996741;28;19941;-79
2023/03/31 08:02:45;;;;;;;;;;;21.60;66.00;;;;;;4989021;28;19952;-80
2023/03/31 08:05:13;;;;;;;;;;;21.50;66.30;;;;;;4988823;28;19936;-79
2023/03/31 08:07:40;;;;;;;;;;;21.30;67.80;;;;;;4999700;28;19905;-80
2023/03/31 08:10:09;;;;;;;;;;;20.80;68.90;;;;;;4998595;28;19912;-78
2023/03/31 08:12:36;;;;;;;;;;;19.70;69.60;;;;;;4991769;28;19913;-79
2023/03/31 08:15:04;;;;;;;;;;;19.30;72.30;;;;;;4970940;28;19941;-80
2023/03/31 08:17:48;;;;;;;;;;;18.90;74.80;;;;;;4996965;28;19909;-80
2023/03/31 08:20:21;;;;;;;;;;;18.50;75.70;;;;;;4999187;28;20029;-78
2023/03/31 08:22:48;;;;;;;;;;;18.30;76.40;;;;;;4990675;28;20621;-78
2023/03/31 08:25:25;;;;;;;;;;;18.20;78.10;;;;;;4996635;28;19920;-79
2023/03/31 08:28:13;;;;;;;;;;;18.00;79.90;;;;;;4983717;28;20472;-79
2023/03/31 08:30:46;;;;;;;;;;;17.80;80.30;;;;;;4988823;28;19913;-79
2023/03/31 08:33:13;;;;;;;;;;;17.40;82.80;;;;;;5011929;28;19912;-79
2023/03/31 08:35:38;;;;;;;;;;;17.30;85.20;;;;;;4985736;28;19910;-78
2023/03/31 08:38:10;;;;;;;;;;;17.10;88.60;;;;;;5005059;28;19909;-79
2023/03/31 08:40:38;;;;;;;;;;;16.90;89.70;;;;;;4997345;28;19906;-79
2023/03/31 08:43:11;;;;;;;;;;;16.80;90.00;;;;;;4983707;28;19905;-79
2023/03/31 08:45:49;;;;;;;;;;;16.50;90.90;;;;;;4995235;28;19909;-79
2023/03/31 08:48:37;;;;;;;;;;;16.70;91.80;;;;;;4992896;28;19906;-78
2023/03/31 08:51:12;;;;;;;;;;;16.80;91.50;;;;;;4992452;28;20022;-79
2023/03/31 08:53:51;;;;;;;;;;;16.70;91.20;;;;;;4998794;28;19909;-78
2023/03/31 08:56:19;;;;;;;;;;;16.70;90.40;;;;;;4995139;28;19906;-80
2023/03/31 08:58:48;;;;;;;;;;;16.80;91.00;;;;;;5004044;28;19905;-79
2023/03/31 09:01:35;;;;;;;;;;;16.80;91.20;;;;;;4990579;28;19942;-78
2023/03/31 09:04:06;;;;;;;;;;;16.70;91.60;;;;;;5002323;28;19917;-78
2023/03/31 09:06:45;;;;;;;;;;;16.60;92.30;;;;;;4988321;28;19920;-78
2023/03/31 09:09:42;;;;;;;;;;;16.40;93.90;;;;;;4997686;28;20321;-79
2023/03/31 09:12:15;;;;;;;;;;;16.30;94.00;;;;;;4981445;28;19912;-79
2023/03/31 09:15:06;;;;;;;;;;;16.30;94.50;;;;;;4980856;28;20005;-79
2023/03/31 09:17:34;;;;;;;;;;;16.30;94.30;;;;;;4991638;28;20007;-79
2023/03/31 09:20:12;;;;;;;;;;;15.90;95.10;;;;;;4985121;28;20394;-80
2023/03/31 09:22:47;;;;;;;;;;;15.90;96.60;;;;;;4972703;28;19906;-79
2023/03/31 09:25:21;;;;;;;;;;;15.80;96.60;;;;;;4978238;28;20298;-77
2023/03/31 09:27:56;;;;;;;;;;;15.60;96.90;;;;;;4984189;28;19991;-77
2023/03/31 09:30:26;;;;;;;;;;;15.60;98.50;;;;;;4997354;28;20351;-76
2023/03/31 09:32:53;;;;;;;;;;;15.60;99.70;;;;;;5000615;28;19912;-76
2023/03/31 09:35:25;;;;;;;;;;;15.70;99.70;;;;;;4992045;28;19913;-76
2023/03/31 09:37:52;;;;;;;;;;;15.80;99.80;;;;;;4989511;28;19910;-77
2023/03/31 09:40:19;;;;;;;;;;;15.90;99.30;;;;;;4996075;28;19912;-77
2023/03/31 09:42:46;;;;;;;;;;;16.00;98.60;;;;;;4991193;28;20163;-76
2023/03/31 09:45:17;;;;;;;;;;;16.10;98.80;;;;;;4997397;28;19910;-77
2023/03/31 09:47:46;;;;;;;;;;;16.30;98.60;;;;;;4990973;28;19906;-77
2023/03/31 09:50:25;;;;;;;;;;;16.40;98.20;;;;;;4990966;28;19906;-78
2023/03/31 09:52:55;;;;;;;;;;;16.60;98.00;;;;;;4987370;28;20055;-78
2023/03/31 09:55:27;;;;;;;;;;;16.70;97.40;;;;;;5002326;28;19914;-77
2023/03/31 09:57:55;;;;;;;;;;;16.20;98.10;;;;;;4989693;28;19905;-78
2023/03/31 10:00:21;;;;;;;;;;;16.20;98.80;;;;;;4992785;28;19916;-77
2023/03/31 10:02:49;;;;;;;;;;;16.10;98.50;;;;;;4998904;28;19905;-78
2023/03/31 10:05:20;;;;;;;;;;;16.10;98.70;;;;;;4983836;28;20066;-78
2023/03/31 10:07:47;;;;;;;;;;;16.10;98.40;;;;;;4985112;28;19910;-78
2023/03/31 10:10:31;;;;;;;;;;;16.00;99.30;;;;;;4993661;28;20685;-78
2023/03/31 10:13:08;;;;;;;;;;;16.10;98.50;;;;;;4989726;28;19939;-78
2023/03/31 10:15:36;;;;;;;;;;;16.20;98.80;;;;;;4997677;28;20663;-78
2023/03/31 10:20:59;;;;;;;;;;;16.40;98.10;;;;;;4988031;28;19913;-78
2023/03/31 10:23:33;;;;;;;;;;;16.40;97.80;;;;;;4993420;28;19913;-78
2023/03/31 10:26:03;;;;;;;;;;;16.40;97.80;;;;;;4986669;28;19917;-78
2023/03/31 10:28:32;;;;;;;;;;;16.40;97.70;;;;;;4968216;28;19909;-79
2023/03/31 10:31:02;;;;;;;;;;;16.40;97.60;;;;;;4992451;28;19930;-78
2023/03/31 10:33:33;;;;;;;;;;;16.60;97.10;;;;;;4975306;28;20755;-78
2023/03/31 10:36:14;;;;;;;;;;;16.50;97.30;;;;;;4995887;28;20331;-78
2023/03/31 10:38:43;;;;;;;;;;;16.70;97.10;;;;;;4974782;28;20356;-78
2023/03/31 10:41:16;;;;;;;;;;;16.90;96.40;;;;;;4996415;28;20550;-78
2023/03/31 10:43:46;;;;;;;;;;;16.90;96.30;;;;;;4984409;28;19955;-78
2023/03/31 10:46:13;;;;;;;;;;;16.90;97.10;;;;;;5006075;28;19931;-78
2023/03/31 10:48:41;;;;;;;;;;;16.90;97.80;;;;;;4989133;28;19910;-78
2023/03/31 10:54:23;;;;;;;;;;;16.90;96.20;;;;;;4990215;28;19921;-79
2023/03/31 10:57:02;;;;;;;;;;;16.80;96.50;;;;;;4981714;28;20004;-78
2023/03/31 10:59:51;;;;;;;;;;;16.70;97.10;;;;;;4994463;28;20342;-78
2023/03/31 11:02:41;;;;;;;;;;;16.60;97.00;;;;;;4978981;28;20270;-77
2023/03/31 11:05:41;;;;;;;;;;;16.50;97.10;;;;;;4985622;28;19962;-79
2023/03/31 11:08:19;;;;;;;;;;;16.30;97.80;;;;;;4954300;28;19905;-79
2023/03/31 11:10:44;;;;;;;;;;;16.30;98.10;;;;;;5001251;28;20000;-79
2023/03/31 11:13:21;;;;;;;;;;;16.50;98.60;;;;;;4985309;28;19996;-79
2023/03/31 11:16:06;;;;;;;;;;;16.50;97.70;;;;;;4973061;28;19905;-78
2023/03/31 11:18:33;;;;;;;;;;;16.60;98.50;;;;;;4970731;28;20028;-77
2023/03/31 11:21:06;;;;;;;;;;;16.60;97.80;;;;;;4995410;28;20014;-78
2023/03/31 11:23:40;;;;;;;;;;;16.50;98.10;;;;;;4975409;28;19920;-78
2023/03/31 11:26:26;;;;;;;;;;;16.70;97.60;;;;;;4993678;28;19916;-79
2023/03/31 11:29:15;;;;;;;;;;;17.20;97.50;;;;;;4988908;28;19906;-77
2023/03/31 11:31:55;;;;;;;;;;;17.90;96.60;;;;;;4978031;28;19909;-78
2023/03/31 11:34:41;;;;;;;;;;;18.60;94.70;;;;;;4984440;28;19964;-77
2023/03/31 11:37:30;;;;;;;;;;;18.90;93.60;;;;;;4980247;28;20283;-78
2023/03/31 11:40:06;;;;;;;;;;;19.10;92.40;;;;;;4990666;28;19914;-78
2023/03/31 11:42:45;;;;;;;;;;;19.40;91.40;;;;;;4985284;28;20259;-78
2023/03/31 11:45:17;;;;;;;;;;;19.70;90.40;;;;;;4994033;28;20544;-78
2023/03/31 11:47:47;;;;;;;;;;;20.00;88.50;;;;;;4986990;28;19905;-78
2023/03/31 11:50:17;;;;;;;;;;;20.00;85.40;;;;;;4992762;28;19948;-78
2023/03/31 11:53:05;;;;;;;;;;;19.90;83.90;;;;;;4989841;28;20365;-78
2023/03/31 11:55:36;;;;;;;;;;;19.70;84.40;;;;;;4986289;28;19909;-78
2023/03/31 11:58:04;;;;;;;;;;;20.50;84.00;;;;;;4990494;28;19957;-80
2023/03/31 12:00:34;;;;;;;;;;;21.10;80.10;;;;;;4982627;28;20428;-78
2023/03/31 12:03:22;;;;;;;;;;;21.10;77.30;;;;;;4986439;28;19917;-79
2023/03/31 12:05:50;;;;;;;;;;;20.70;77.30;;;;;;4996135;28;19953;-78
2023/03/31 12:08:21;;;;;;;;;;;20.40;77.90;;;;;;5003297;28;19916;-79
2023/03/31 12:10:50;;;;;;;;;;;19.70;77.00;;;;;;5014190;28;19988;-78
2023/03/31 12:13:37;;;;;;;;;;;19.20;79.00;;;;;;5001599;28;19912;-79
2023/03/31 12:16:03;;;;;;;;;;;19.00;80.70;;;;;;4973684;28;19909;-78
2023/03/31 12:18:42;;;;;;;;;;;18.90;80.70;;;;;;4997328;28;19913;-78
2023/03/31 12:21:08;;;;;;;;;;;19.00;81.80;;;;;;4988410;28;19997;-79
2023/03/31 12:23:39;;;;;;;;;;;18.50;82.50;;;;;;5005337;28;19909;-79
2023/03/31 12:26:06;;;;;;;;;;;18.30;83.20;;;;;;5006896;28;19924;-78
2023/03/31 12:28:36;;;;;;;;;;;18.00;84.50;;;;;;4998170;28;19909;-78
2023/03/31 12:31:03;;;;;;;;;;;17.70;85.80;;;;;;4994995;28;19945;-79
2023/03/31 12:33:35;;;;;;;;;;;17.20;87.00;;;;;;4980815;28;19927;-78
2023/03/31 12:36:18;;;;;;;;;;;17.00;88.70;;;;;;4992797;28;19949;-78
2023/03/31 12:39:04;;;;;;;;;;;16.80;90.00;;;;;;4992853;28;19906;-78
2023/03/31 12:41:53;;;;;;;;;;;16.80;90.60;;;;;;4980939;28;19959;-77
2023/03/31 12:44:38;;;;;;;;;;;17.30;89.70;;;;;;4901050;29;19958;-78
2023/03/31 12:47:08;;;;;;;;;;;18.10;88.20;;;;;;4992235;28;19992;-78
2023/03/31 12:49:39;;;;;;;;;;;19.20;84.10;;;;;;4995848;28;19912;-78
2023/03/31 12:52:10;;;;;;;;;;;19.70;82.60;;;;;;4981170;28;19967;-78
2023/03/31 12:54:48;;;;;;;;;;;20.00;79.80;;;;;;4993846;28;20411;-78
2023/03/31 12:57:22;;;;;;;;;;;19.90;79.50;;;;;;4982155;28;19999;-78
2023/03/31 13:00:12;;;;;;;;;;;19.90;80.60;;;;;;5007318;28;19924;-78
2023/03/31 13:02:40;;;;;;;;;;;19.60;80.50;;;;;;4973545;28;19906;-79
2023/03/31 13:05:24;;;;;;;;;;;19.60;81.60;;;;;;5000625;28;19917;-79
2023/03/31 13:07:51;;;;;;;;;;;19.70;82.90;;;;;;4986617;28;19906;-77
2023/03/31 13:10:17;;;;;;;;;;;19.80;79.40;;;;;;4999957;28;20286;-79
2023/03/31 13:13:03;;;;;;;;;;;19.50;79.80;;;;;;4983736;28;19909;-77
2023/03/31 13:15:29;;;;;;;;;;;19.40;77.90;;;;;;4989216;28;19960;-77
2023/03/31 13:17:58;;;;;;;;;;;19.40;78.00;;;;;;4992635;28;21222;-79
2023/03/31 13:20:41;;;;;;;;;;;19.70;79.70;;;;;;5002649;28;19917;-78
2023/03/31 13:23:27;;;;;;;;;;;19.80;78.30;;;;;;4981545;28;19906;-78
2023/03/31 13:25:54;;;;;;;;;;;19.90;78.40;;;;;;5001957;28;19914;-79
2023/03/31 13:28:23;;;;;;;;;;;19.90;78.10;;;;;;4978718;28;20005;-80
2023/03/31 13:31:01;;;;;;;;;;;19.90;77.30;;;;;;4976672;28;19905;-79
2023/03/31 13:33:36;;;;;;;;;;;20.00;77.40;;;;;;4986459;28;19918;-78
2023/03/31 13:36:16;;;;;;;;;;;20.20;75.60;;;;;;4974305;28;19914;-80
2023/03/31 13:39:02;;;;;;;;;;;20.20;71.60;;;;;;4997804;28;20047;-77
2023/03/31 13:41:46;;;;;;;;;;;19.90;69.50;;;;;;4977886;28;19913;-77
2023/03/31 13:44:37;;;;;;;;;;;19.70;70.20;;;;;;4999302;28;19912;-77
2023/03/31 13:47:05;;;;;;;;;;;19.50;70.90;;;;;;5001222;28;19913;-77
2023/03/31 13:49:40;;;;;;;;;;;19.40;71.00;;;;;;4977478;28;20382;-80
2023/03/31 13:52:12;;;;;;;;;;;19.60;71.50;;;;;;4978278;28;19910;-77
2023/03/31 13:54:54;;;;;;;;;;;19.70;70.00;;;;;;4979436;28;19913;-77
2023/03/31 13:57:27;;;;;;;;;;;19.90;70.50;;;;;;4981734;28;19910;-79
2023/03/31 14:00:10;;;;;;;;;;;20.10;69.60;;;;;;4988271;28;19996;-77
2023/03/31 14:02:54;;;;;;;;;;;19.70;67.70;;;;;;4979628;28;19947;-77
2023/03/31 14:05:29;;;;;;;;;;;19.50;67.90;;;;;;4991512;28;19914;-78
2023/03/31 14:08:21;;;;;;;;;;;19.50;68.10;;;;;;4970809;28;19913;-79
2023/03/31 14:10:47;;;;;;;;;;;19.40;68.30;;;;;;4967787;28;19905;-80
2023/03/31 14:13:23;;;;;;;;;;;19.30;68.70;;;;;;4990154;28;20606;-77
2023/03/31 14:15:57;;;;;;;;;;;19.10;68.60;;;;;;4977357;28;19909;-78
2023/03/31 14:18:33;;;;;;;;;;;18.90;69.50;;;;;;4994552;28;19912;-79
2023/03/31 14:21:20;;;;;;;;;;;18.70;69.50;;;;;;5002276;28;19996;-79
2023/03/31 14:23:54;;;;;;;;;;;18.40;70.30;;;;;;4995440;28;19905;-78
2023/03/31 14:26:30;;;;;;;;;;;18.00;70.40;;;;;;5000993;28;20275;-78
2023/03/31 14:29:14;;;;;;;;;;;17.90;71.50;;;;;;4996978;28;19936;-78
2023/03/31 14:31:59;;;;;;;;;;;17.80;71.50;;;;;;4999170;28;19905;-77
2023/03/31 14:34:52;;;;;;;;;;;17.60;72.00;;;;;;4980434;28;21543;-77
2023/03/31 14:37:19;;;;;;;;;;;17.50;72.70;;;;;;4992571;28;19940;-77
2023/03/31 14:39:53;;;;;;;;;;;17.30;73.50;;;;;;4987160;28;19916;-78
2023/03/31 14:42:20;;;;;;;;;;;17.20;74.50;;;;;;4988630;28;19914;-79
2023/03/31 14:44:48;;;;;;;;;;;17.10;75.00;;;;;;4993625;28;19924;-77
2023/03/31 14:47:20;;;;;;;;;;;17.00;76.30;;;;;;4985835;28;19913;-78
2023/03/31 14:49:46;;;;;;;;;;;17.00;76.60;;;;;;4991309;28;19910;-78
2023/03/31 14:52:24;;;;;;;;;;;17.00;76.70;;;;;;4987004;28;19906;-78
2023/03/31 14:54:51;;;;;;;;;;;17.00;77.20;;;;;;4994859;28;19914;-78
2023/03/31 14:57:20;;;;;;;;;;;16.90;77.60;;;;;;4987841;28;19910;-78
2023/03/31 14:59:46;;;;;;;;;;;16.90;78.30;;;;;;4990884;28;19912;-77
2023/03/31 15:02:16;;;;;;;;;;;16.80;78.50;;;;;;4987491;28;20625;-77
2023/03/31 15:04:45;;;;;;;;;;;16.70;78.60;;;;;;4982754;28;19956;-76
2023/03/31 15:07:11;;;;;;;;;;;16.70;78.80;;;;;;4992671;28;19909;-75
2023/03/31 15:09:37;;;;;;;;;;;16.60;79.10;;;;;;4991540;28;19905;-76
2023/03/31 15:12:09;;;;;;;;;;;16.60;78.90;;;;;;4984057;28;19932;-77
2023/03/31 15:14:41;;;;;;;;;;;16.50;78.50;;;;;;5001243;28;20000;-76
2023/03/31 15:17:15;;;;;;;;;;;16.40;78.30;;;;;;4997354;28;19906;-75